Time;durP1;ratioP1;P1;durP2;ratioP2;P2;SDS_P1;SDS_P2;PMS_P1;PMS_P2;Temp;Humidity;BMP_temperature;BMP_pressure;BME280_temperature;BME280_humidity;BME280_pressure;Samples;Min_cycle;Max_cycle;Signal;HPM_P1;HPM_P2
2022/01/16 00:00:49;;;;;;;91.25;46.92;;;51.50;2227.20;;;;;;5050438;28;20429;-55
2022/01/16 00:05:59;;;;;;;48.28;25.88;;;51.50;2227.20;;;;;;5050095;28;20032;-56
2022/01/16 00:08:25;;;;;;;43.88;25.33;;;51.40;2227.20;;;;;;5050011;28;20057;-54
2022/01/16 00:10:50;;;;;;;100.13;43.35;;;26.50;2201.60;;;;;;5050461;28;20021;-55
2022/01/16 00:13:16;;;;;;;330.02;172.40;;;26.50;2201.60;;;;;;5050289;28;20032;-59
2022/01/16 00:15:44;;;;;;;52.28;31.40;;;26.40;2201.60;;;;;;5050223;28;20138;-55
2022/01/16 00:18:20;;;;;;;37.03;21.45;;;26.30;2201.60;;;;;;5050189;28;20033;-55
2022/01/16 00:20:46;;;;;;;38.15;21.00;;;26.40;2201.60;;;;;;5049549;28;20079;-54
2022/01/16 00:23:11;;;;;;;42.00;23.38;;;51.20;2227.20;;;;;;5050111;28;20033;-55
2022/01/16 00:25:37;;;;;;;41.08;25.13;;;51.30;2227.20;;;;;;5049864;28;20032;-55
2022/01/16 00:28:03;;;;;;;42.60;22.48;;;51.30;2227.20;;;;;;5049947;28;20033;-55
2022/01/16 00:30:29;;;;;;;34.88;20.55;;;51.40;2227.20;;;;;;5050002;28;20058;-54
2022/01/16 00:33:00;;;;;;;69.85;34.65;;;51.40;2227.20;;;;;;5049202;28;20041;-55
2022/01/16 00:35:26;;;;;;;71.45;39.70;;;51.50;2227.20;;;;;;5049717;28;20376;-55
2022/01/16 00:37:52;;;;;;;76.05;39.20;;;51.60;2227.20;;;;;;5049747;28;20029;-55
2022/01/16 00:40:18;;;;;;;62.55;35.75;;;51.70;2227.20;;;;;;5049766;28;20033;-55
2022/01/16 00:42:44;;;;;;;32.88;20.33;;;51.60;2227.20;;;;;;5049518;28;20132;-55
2022/01/16 00:45:10;;;;;;;32.70;20.48;;;51.30;2227.20;;;;;;5049384;28;20113;-55
2022/01/16 00:47:36;;;;;;;86.88;40.13;;;51.20;2227.20;;;;;;5049430;28;20475;-55
2022/01/16 00:50:04;;;;;;;77.68;35.72;;;51.20;2227.20;;;;;;5049671;28;20546;-55
2022/01/16 00:52:30;;;;;;;49.78;24.85;;;51.20;2227.20;;;;;;5049760;28;20037;-55
2022/01/16 00:54:58;;;;;;;43.38;26.55;;;26.40;2201.60;;;;;;5049407;28;20507;-54
2022/01/16 00:57:24;;;;;;;77.20;42.10;;;26.40;2201.60;;;;;;5049375;28;20103;-55
2022/01/16 00:59:50;;;;;;;88.38;48.60;;;26.00;2201.60;;;;;;5049072;28;20079;-55
2022/01/16 01:02:16;;;;;;;106.97;54.28;;;26.10;2201.60;;;;;;5048827;28;20499;-54
2022/01/16 01:04:44;;;;;;;63.13;37.25;;;26.20;2201.60;;;;;;5049284;28;20040;-56
2022/01/16 01:07:10;;;;;;;68.03;36.20;;;26.40;2201.60;;;;;;5049279;28;20041;-55
2022/01/16 01:09:36;;;;;;;68.40;36.70;;;26.40;2201.60;;;;;;5051270;28;20498;-55
2022/01/16 01:12:03;;;;;;;69.53;39.45;;;26.40;2201.60;;;;;;5051071;28;20396;-58
2022/01/16 01:14:41;;;;;;;88.57;47.22;;;26.40;2201.60;;;;;;5050764;28;20033;-55
2022/01/16 01:17:09;;;;;;;52.88;27.30;;;26.40;2201.60;;;;;;5050075;28;20075;-56
2022/01/16 01:19:35;;;;;;;34.85;19.67;;;26.50;2201.60;;;;;;5050467;28;20082;-54
2022/01/16 01:22:04;;;;;;;40.25;22.08;;;26.50;2201.60;;;;;;5050864;28;20107;-57
2022/01/16 01:24:31;;;;;;;40.33;24.38;;;26.50;2201.60;;;;;;5050625;28;20033;-55
2022/01/16 01:29:28;;;;;;;51.00;29.38;;;51.20;2227.20;;;;;;5050516;28;20033;-55
2022/01/16 01:31:54;;;;;;;57.80;30.77;;;51.20;2227.20;;;;;;5050195;28;20120;-56
2022/01/16 01:34:20;;;;;;;67.75;35.30;;;51.30;2227.20;;;;;;5050381;28;20029;-55
2022/01/16 01:36:48;;;;;;;74.78;40.58;;;51.30;2227.20;;;;;;5050173;28;20036;-55
2022/01/16 01:39:22;;;;;;;61.72;34.20;;;51.40;2227.20;;;;;;5050226;28;20029;-55
2022/01/16 01:41:51;;;;;;;51.00;27.98;;;51.30;2227.20;;;;;;5050103;28;20036;-55
2022/01/16 01:52:30;;;;;;;43.38;23.63;;;51.20;2227.20;;;;;;5050556;28;20055;-55
2022/01/16 01:54:56;;;;;;;57.55;30.45;;;51.30;2227.20;;;;;;5050217;28;20021;-55
2022/01/16 01:57:22;;;;;;;97.88;45.67;;;51.40;2227.20;;;;;;5050058;28;20103;-55
2022/01/16 01:59:48;;;;;;;110.13;49.50;;;51.40;2227.20;;;;;;5049892;28;20075;-55
2022/01/16 02:02:14;;;;;;;62.90;35.58;;;51.30;2227.20;;;;;;5049567;28;20025;-55
2022/01/16 02:04:39;;;;;;;49.67;31.10;;;51.30;2227.20;;;;;;5049973;28;20115;-55
2022/01/16 02:07:05;;;;;;;47.40;27.60;;;51.20;2227.20;;;;;;5049628;28;20041;-55
2022/01/16 02:09:32;;;;;;;49.47;27.77;;;26.50;2201.60;;;;;;5049926;28;20028;-55
2022/01/16 02:11:58;;;;;;;39.17;24.73;;;26.30;2201.60;;;;;;5049866;28;20535;-55
2022/01/16 02:14:31;;;;;;;51.00;27.45;;;26.40;2201.60;;;;;;5049953;28;20434;-56
2022/01/16 02:28:13;;;;;;;37.38;21.17;;;26.10;2201.60;;;;;;5050173;28;20063;-54
2022/01/16 02:31:00;;;;;;;40.58;24.25;;;26.10;2201.60;;;;;;5053664;28;20041;-54
2022/01/16 02:36:18;;;;;;;38.63;22.02;;;25.90;2201.60;;;;;;5053938;28;20029;-55
2022/01/16 02:38:45;;;;;;;32.53;20.20;;;25.70;2201.60;;;;;;5053439;28;20436;-55
2022/01/16 02:41:11;;;;;;;41.55;23.20;;;25.60;2201.60;;;;;;5053665;28;20036;-55
2022/01/16 02:43:44;;;;;;;87.80;47.33;;;0.90;2201.60;;;;;;5053622;28;20037;-54
2022/01/16 02:46:36;;;;;;;41.78;22.05;;;0.80;2201.60;;;;;;5053858;28;20021;-54
2022/01/16 02:48:56;;;;;;;34.17;20.70;;;0.80;2201.60;;;;;;5053230;28;20037;-55
2022/01/16 02:51:25;;;;;;;35.35;23.35;;;0.70;2201.60;;;;;;5053511;28;20390;-55
2022/01/16 02:53:51;;;;;;;39.50;23.85;;;0.90;2201.60;;;;;;5053395;28;20147;-55
2022/01/16 02:56:18;;;;;;;44.97;23.88;;;0.90;2201.60;;;;;;5053130;28;20028;-55
2022/01/16 02:58:44;;;;;;;44.10;23.65;;;25.60;2201.60;;;;;;5053162;28;20032;-55
2022/01/16 03:01:11;;;;;;;49.63;27.52;;;25.60;2201.60;;;;;;5053210;28;20032;-55
2022/01/16 03:03:37;;;;;;;49.25;26.08;;;25.60;2201.60;;;;;;5052880;28;20486;-55
2022/01/16 03:06:02;;;;;;;46.00;23.98;;;25.60;2201.60;;;;;;5053099;28;20110;-55
2022/01/16 03:08:28;;;;;;;35.72;20.77;;;25.80;2201.60;;;;;;5052836;28;20128;-55
2022/01/16 03:13:21;;;;;;;30.33;18.38;;;25.60;2201.60;;;;;;5053051;28;20020;-55
2022/01/16 03:15:50;;;;;;;30.17;16.92;;;25.60;2201.60;;;;;;5052812;28;20071;-55
2022/01/16 03:23:26;;;;;;;32.58;18.10;;;25.60;2201.60;;;;;;5052986;28;20040;-55
2022/01/16 03:25:53;;;;;;;25.27;16.45;;;25.60;2201.60;;;;;;5053086;28;20029;-55
2022/01/16 03:28:20;;;;;;;28.65;17.02;;;25.60;2201.60;;;;;;5053024;28;20739;-54
2022/01/16 03:30:47;;;;;;;52.67;25.77;;;0.80;2201.60;;;;;;5052647;28;20112;-55
2022/01/16 03:33:13;;;;;;;73.38;36.25;;;0.90;2201.60;;;;;;5052718;28;20033;-58
2022/01/16 03:35:39;;;;;;;106.65;50.90;;;0.80;2201.60;;;;;;5052679;28;20091;-55
2022/01/16 03:38:06;;;;;;;89.97;43.33;;;0.90;2201.60;;;;;;5052461;28;20060;-55
2022/01/16 03:40:32;;;;;;;48.53;28.67;;;0.90;2201.60;;;;;;5052034;28;20056;-55
2022/01/16 03:43:04;;;;;;;55.53;29.02;;;0.90;2201.60;;;;;;5052634;28;20060;-54
2022/01/16 03:45:31;;;;;;;52.43;24.57;;;0.90;2201.60;;;;;;5052515;28;20032;-55
2022/01/16 03:47:58;;;;;;;36.83;22.75;;;0.80;2201.60;;;;;;5052211;28;20270;-55
2022/01/16 03:50:24;;;;;;;85.30;43.25;;;0.90;2201.60;;;;;;5052215;28;20025;-55
2022/01/16 03:52:50;;;;;;;66.05;35.97;;;0.90;2201.60;;;;;;5052498;28;20039;-54
2022/01/16 03:55:16;;;;;;;61.28;31.55;;;25.60;2201.60;;;;;;5052165;28;20383;-54
2022/01/16 03:57:42;;;;;;;56.05;28.00;;;0.90;2201.60;;;;;;5052331;28;20029;-55
2022/01/16 04:00:08;;;;;;;53.45;28.23;;;0.90;2201.60;;;;;;5051900;28;20108;-55
2022/01/16 04:02:34;;;;;;;43.33;23.50;;;0.80;2201.60;;;;;;5051887;28;20073;-56
2022/01/16 04:05:00;;;;;;;92.60;51.85;;;0.70;2201.60;;;;;;5051927;28;20057;-55
2022/01/16 04:07:31;;;;;;;164.80;79.22;;;0.70;2201.60;;;;;;5051634;28;20056;-57
2022/01/16 04:09:57;;;;;;;102.68;52.63;;;0.70;2201.60;;;;;;5051785;28;20483;-55
2022/01/16 04:12:24;;;;;;;100.18;47.28;;;0.60;2201.60;;;;;;5051864;28;20056;-55
2022/01/16 04:17:21;;;;;;;50.85;27.40;;;0.60;2201.60;;;;;;5051704;28;20017;-55
2022/01/16 04:19:48;;;;;;;48.85;23.95;;;0.60;2201.60;;;;;;5051701;28;20033;-55
2022/01/16 04:22:14;;;;;;;207.93;105.95;;;0.60;2201.60;;;;;;5051820;28;20082;-54
2022/01/16 04:24:41;;;;;;;68.95;40.75;;;0.60;2201.60;;;;;;5051848;28;20049;-57
2022/01/16 04:27:10;;;;;;;70.05;40.70;;;0.70;2201.60;;;;;;5051701;28;20025;-54
2022/01/16 04:29:36;;;;;;;62.75;34.50;;;0.70;2201.60;;;;;;5051382;28;20100;-55
2022/01/16 04:32:02;;;;;;;65.03;33.28;;;0.70;2201.60;;;;;;5051379;28;20025;-59
2022/01/16 04:34:28;;;;;;;57.45;29.75;;;0.70;2201.60;;;;;;5051250;28;20025;-54
2022/01/16 04:36:53;;;;;;;58.60;31.08;;;0.70;2201.60;;;;;;5051626;28;20104;-56
2022/01/16 04:39:21;;;;;;;58.50;33.00;;;0.70;2201.60;;;;;;5051401;28;20036;-54
2022/01/16 04:44:32;;;;;;;67.25;42.30;;;0.80;2201.60;;;;;;5051338;28;20059;-60
2022/01/16 04:46:58;;;;;;;78.18;45.28;;;0.80;2201.60;;;;;;5051165;28;20021;-54
2022/01/16 04:49:24;;;;;;;81.07;49.63;;;0.60;2201.60;;;;;;5051189;28;20091;-56
2022/01/16 04:51:50;;;;;;;79.28;42.67;;;0.60;2201.60;;;;;;5050296;28;20033;-54
2022/01/16 04:54:16;;;;;;;72.40;39.92;;;0.60;2201.60;;;;;;5051105;28;20028;-54
2022/01/16 04:56:42;;;;;;;70.75;42.50;;;0.60;2201.60;;;;;;5051223;28;20055;-54
2022/01/16 04:59:08;;;;;;;73.03;43.03;;;0.60;2201.60;;;;;;5050830;28;20035;-54
2022/01/16 05:01:34;;;;;;;63.80;40.08;;;0.60;2201.60;;;;;;5050613;28;20040;-54
2022/01/16 05:03:59;;;;;;;55.25;35.05;;;0.50;2201.60;;;;;;5050783;28;20041;-55
2022/01/16 05:06:25;;;;;;;53.65;31.23;;;0.40;2201.60;;;;;;5050812;28;20024;-55
2022/01/16 05:08:51;;;;;;;61.97;41.33;;;0.20;2201.60;;;;;;5050976;28;20117;-56
2022/01/16 05:11:24;;;;;;;40.83;24.63;;;0.00;2201.60;;;;;;5050582;28;20383;-58
2022/01/16 05:19:01;;;;;;;49.78;28.95;;;12.90;2201.60;;;;;;5050600;28;20147;-55
2022/01/16 05:21:26;;;;;;;32.40;23.73;;;13.00;2201.60;;;;;;5050744;28;20052;-54
2022/01/16 05:23:52;;;;;;;35.58;23.00;;;13.00;2201.60;;;;;;5050738;28;20072;-55
2022/01/16 05:26:24;;;;;;;40.97;20.55;;;13.00;2201.60;;;;;;5050532;28;20079;-56
2022/01/16 05:28:50;;;;;;;41.15;25.85;;;13.10;2201.60;;;;;;5050592;28;20039;-56
2022/01/16 05:31:16;;;;;;;48.13;29.75;;;13.00;2201.60;;;;;;5050095;28;20021;-58
2022/01/16 05:33:42;;;;;;;44.97;25.10;;;12.90;2201.60;;;;;;5050278;28;20044;-54
2022/01/16 05:36:08;;;;;;;88.60;52.20;;;13.00;2201.60;;;;;;5050354;28;20108;-54
2022/01/16 05:38:34;;;;;;;56.72;30.77;;;13.00;2201.60;;;;;;5050141;28;20029;-55
2022/01/16 05:40:59;;;;;;;37.47;24.20;;;12.90;2201.60;;;;;;5050400;28;20054;-54
2022/01/16 05:43:25;;;;;;;42.60;26.38;;;0.00;2201.60;;;;;;5050266;28;20039;-54
2022/01/16 05:45:51;;;;;;;40.15;23.27;;;0.00;2201.60;;;;;;5050265;28;20021;-54
2022/01/16 05:48:17;;;;;;;40.50;23.88;;;0.00;2201.60;;;;;;5050150;28;20447;-58
2022/01/16 05:50:42;;;;;;;38.70;25.83;;;0.10;2201.60;;;;;;5050185;28;20459;-56
2022/01/16 05:53:08;;;;;;;43.58;25.60;;;0.10;2201.60;;;;;;5050355;28;20029;-58
2022/01/16 05:55:37;;;;;;;37.55;23.65;;;0.10;2201.60;;;;;;5050033;28;20039;-57
2022/01/16 05:58:04;;;;;;;38.45;22.35;;;0.10;2201.60;;;;;;5050135;28;20528;-55
2022/01/16 06:00:30;;;;;;;42.83;25.02;;;0.20;2201.60;;;;;;5049938;28;20112;-58
2022/01/16 06:02:56;;;;;;;43.47;24.15;;;0.20;2201.60;;;;;;5049804;28;20033;-54
2022/01/16 06:05:22;;;;;;;40.83;24.77;;;0.20;2201.60;;;;;;5050023;28;20028;-53
2022/01/16 06:07:53;;;;;;;41.55;24.90;;;0.10;2201.60;;;;;;5049737;28;20174;-53
2022/01/16 06:10:19;;;;;;;45.45;25.50;;;0.20;2201.60;;;;;;5049979;28;20534;-55
2022/01/16 06:12:46;;;;;;;46.28;28.13;;;0.30;2201.60;;;;;;5049823;28;20031;-54
2022/01/16 06:15:11;;;;;;;64.72;37.60;;;0.20;2201.60;;;;;;5049962;28;20021;-56
2022/01/16 06:17:38;;;;;;;82.60;43.58;;;0.30;2201.60;;;;;;5049894;28;20379;-56
2022/01/16 06:20:04;;;;;;;84.63;45.08;;;0.40;2201.60;;;;;;5049825;28;20024;-55
2022/01/16 06:22:30;;;;;;;48.17;27.88;;;0.30;2201.60;;;;;;5049645;28;20437;-54
2022/01/16 06:24:56;;;;;;;41.53;25.17;;;0.30;2201.60;;;;;;5049973;28;20033;-58
2022/01/16 06:27:21;;;;;;;41.90;22.52;;;0.30;2201.60;;;;;;5049968;28;20032;-55
2022/01/16 06:29:47;;;;;;;36.20;20.50;;;0.30;2201.60;;;;;;5049638;28;20025;-54
2022/01/16 06:32:13;;;;;;;37.13;20.73;;;0.30;2201.60;;;;;;5049690;28;20056;-58
2022/01/16 06:34:39;;;;;;;41.90;26.08;;;0.40;2201.60;;;;;;5050008;28;20415;-54
2022/01/16 06:37:04;;;;;;;48.17;27.48;;;0.40;2201.60;;;;;;5049816;28;20021;-54
2022/01/16 06:39:30;;;;;;;60.35;35.20;;;0.40;2201.60;;;;;;5049769;28;20021;-54
2022/01/16 06:41:57;;;;;;;60.45;34.03;;;0.50;2201.60;;;;;;5049688;28;20399;-53
2022/01/16 06:44:23;;;;;;;64.88;38.88;;;0.50;2201.60;;;;;;5049658;28;20055;-54
2022/01/16 06:46:49;;;;;;;60.00;35.75;;;0.60;2201.60;;;;;;5049638;28;20033;-55
2022/01/16 06:49:14;;;;;;;86.38;52.65;;;0.70;2201.60;;;;;;5049397;28;20028;-54
2022/01/16 06:51:40;;;;;;;84.05;46.70;;;0.80;2201.60;;;;;;5049727;28;20032;-54
2022/01/16 06:54:06;;;;;;;59.92;39.53;;;0.80;2201.60;;;;;;5049355;28;20017;-55
2022/01/16 06:56:32;;;;;;;64.57;40.95;;;0.90;2201.60;;;;;;5049669;28;20071;-54
2022/01/16 06:58:58;;;;;;;63.97;41.67;;;0.90;2201.60;;;;;;5049587;28;20021;-54
2022/01/16 07:01:25;;;;;;;64.28;40.20;;;0.90;2201.60;;;;;;5049150;28;20029;-54
2022/01/16 07:03:51;;;;;;;58.67;37.70;;;25.60;2201.60;;;;;;5049362;28;20047;-54
2022/01/16 07:06:17;;;;;;;69.82;42.53;;;25.70;2201.60;;;;;;5049177;28;20017;-54
2022/01/16 07:08:42;;;;;;;178.55;100.20;;;25.70;2201.60;;;;;;5049471;28;20053;-55
2022/01/16 07:11:08;;;;;;;95.13;67.13;;;26.00;2201.60;;;;;;5049261;28;20025;-54
2022/01/16 07:13:35;;;;;;;148.88;91.00;;;25.80;2201.60;;;;;;5049161;28;20025;-55
2022/01/16 07:16:00;;;;;;;88.88;53.45;;;25.80;2201.60;;;;;;5052480;28;20046;-54
2022/01/16 07:18:27;;;;;;;133.65;81.30;;;25.70;2201.60;;;;;;5052809;28;20056;-54
2022/01/16 07:20:54;;;;;;;97.88;60.92;;;25.70;2201.60;;;;;;5052919;28;20021;-54
2022/01/16 07:23:20;;;;;;;72.35;43.83;;;25.60;2201.60;;;;;;5052941;28;20037;-54
2022/01/16 07:25:47;;;;;;;48.80;32.45;;;25.70;2201.60;;;;;;5052804;28;20086;-54
2022/01/16 07:28:13;;;;;;;49.00;30.15;;;25.70;2201.60;;;;;;5052954;28;20025;-54
2022/01/16 07:30:40;;;;;;;58.55;41.72;;;25.80;2201.60;;;;;;5053053;28;20029;-54
2022/01/16 07:33:07;;;;;;;45.80;34.38;;;25.90;2201.60;;;;;;5052488;28;20053;-55
2022/01/16 07:35:34;;;;;;;55.63;36.25;;;26.00;2201.60;;;;;;5052604;28;20017;-54
2022/01/16 07:38:01;;;;;;;142.98;88.82;;;26.10;2201.60;;;;;;5052896;28;20086;-54
2022/01/16 07:40:28;;;;;;;335.70;212.75;;;26.10;2201.60;;;;;;5052549;28;20070;-57
2022/01/16 07:42:55;;;;;;;360.45;225.90;;;26.20;2201.60;;;;;;5052537;28;20149;-54
2022/01/16 07:45:21;;;;;;;444.35;289.63;;;26.10;2201.60;;;;;;5052559;28;20043;-55
2022/01/16 07:47:47;;;;;;;357.23;238.50;;;26.20;2201.60;;;;;;5052275;28;20108;-54
2022/01/16 07:50:17;;;;;;;243.38;153.32;;;26.30;2201.60;;;;;;5052425;28;20443;-54
2022/01/16 07:52:43;;;;;;;170.27;106.43;;;26.30;2201.60;;;;;;5052320;28;20471;-54
2022/01/16 07:55:09;;;;;;;161.48;99.57;;;26.50;2201.60;;;;;;5052285;28;20091;-54
2022/01/16 07:57:35;;;;;;;175.73;116.18;;;26.50;2201.60;;;;;;5052198;28;20043;-58
2022/01/16 08:00:04;;;;;;;202.27;128.20;;;51.20;2227.20;;;;;;5052186;28;20025;-57
2022/01/16 08:02:29;;;;;;;208.98;129.77;;;51.20;2227.20;;;;;;5051951;28;20045;-55
2022/01/16 08:04:55;;;;;;;211.45;134.82;;;51.20;2227.20;;;;;;5052030;28;20028;-58
2022/01/16 08:07:21;;;;;;;220.85;141.73;;;51.40;2227.20;;;;;;5051941;28;20045;-54
2022/01/16 08:09:47;;;;;;;188.40;119.68;;;51.50;2227.20;;;;;;5051827;28;20024;-58
2022/01/16 08:12:14;;;;;;;232.48;147.02;;;51.70;2227.20;;;;;;5051905;28;20033;-54
2022/01/16 08:14:40;;;;;;;228.93;146.48;;;52.10;2227.20;;;;;;5051968;28;20471;-55
2022/01/16 08:17:05;;;;;;;242.65;161.40;;;77.60;2227.20;;;;;;5051609;28;20025;-55
2022/01/16 08:19:31;;;;;;;263.90;175.73;;;103.20;2227.20;;;;;;5052042;28;20021;-59
2022/01/16 08:21:57;;;;;;;214.27;140.63;;;154.10;2252.80;;;;;;5051802;28;20071;-58
2022/01/16 08:24:24;;;;;;;207.52;137.07;;;180.00;2252.80;;;;;;5051796;28;20430;-55
2022/01/16 08:26:51;;;;;;;205.82;139.27;;;230.40;2048.00;;;;;;5051565;28;20486;-54
2022/01/16 08:29:17;;;;;;;233.52;155.85;;;256.20;1894.40;;;;;;5051436;28;20031;-55
2022/01/16 08:31:43;;;;;;;294.50;221.32;;;281.70;1766.40;;;;;;5051388;28;20021;-55
2022/01/16 08:34:09;;;;;;;202.82;150.25;;;282.20;1715.20;;;;;;5051520;28;20040;-60
2022/01/16 08:36:35;;;;;;;128.07;102.53;;;307.70;1664.00;;;;;;5051204;28;20070;-56
2022/01/16 08:39:01;;;;;;;184.77;143.57;;;332.80;1638.40;;;;;;5051335;28;20036;-56
2022/01/16 08:41:27;;;;;;;226.02;192.50;;;333.50;1612.80;;;;;;5051360;28;20017;-56
2022/01/16 08:43:53;;;;;;;270.27;223.68;;;358.50;1536.00;;;;;;5051310;28;20040;-55
2022/01/16 08:46:20;;;;;;;556.05;425.88;;;308.10;1561.60;;;;;;5050929;28;20025;-54
2022/01/16 08:48:47;;;;;;;511.10;387.88;;;281.90;1638.40;;;;;;5050947;28;20029;-58
2022/01/16 08:51:13;;;;;;;529.22;402.80;;;230.90;1766.40;;;;;;5043062;28;20028;-57
2022/01/16 08:53:39;;;;;;;422.55;312.05;;;205.40;1894.40;;;;;;5040513;28;20034;-55
2022/01/16 08:56:05;;;;;;;308.00;237.95;;;230.70;1843.20;;;;;;5038511;28;20021;-54
2022/01/16 08:58:31;;;;;;;188.80;154.25;;;256.50;1740.80;;;;;;5040443;28;20534;-59
2022/01/16 09:00:57;;;;;;;245.10;198.02;;;281.90;1689.60;;;;;;5039719;28;20018;-59
2022/01/16 09:03:23;;;;;;;156.73;128.15;;;307.40;1638.40;;;;;;5038559;28;20041;-56
2022/01/16 09:05:50;;;;;;;101.88;87.40;;;308.00;1587.20;;;;;;5040359;28;20025;-55
2022/01/16 09:08:17;;;;;;;254.27;195.32;;;308.00;1561.60;;;;;;5039171;28;20041;-56
2022/01/16 09:10:43;;;;;;;87.63;70.57;;;308.10;1561.60;;;;;;5038616;28;20021;-55
2022/01/16 09:13:16;;;;;;;80.97;68.93;;;308.10;1561.60;;;;;;5039679;28;20036;-56
2022/01/16 09:15:47;;;;;;;160.73;123.00;;;333.20;1536.00;;;;;;5050809;28;20063;-61
2022/01/16 09:18:14;;;;;;;219.77;169.20;;;333.40;1536.00;;;;;;5050786;28;20025;-56
2022/01/16 09:20:40;;;;;;;178.63;142.90;;;333.30;1536.00;;;;;;5050550;28;20029;-55
2022/01/16 09:23:07;;;;;;;179.38;145.48;;;333.20;1536.00;;;;;;5050341;28;20037;-60
2022/01/16 09:25:33;;;;;;;186.73;152.50;;;333.40;1536.00;;;;;;5050663;28;20025;-56
2022/01/16 09:27:59;;;;;;;198.98;167.45;;;333.20;1536.00;;;;;;5053464;28;20182;-56
2022/01/16 09:30:25;;;;;;;205.65;168.45;;;332.90;1561.60;;;;;;5053717;28;20021;-57
2022/01/16 09:32:51;;;;;;;200.38;171.38;;;333.10;1536.00;;;;;;5053187;28;20111;-55
2022/01/16 09:35:18;;;;;;;165.60;136.20;;;333.20;1536.00;;;;;;5053742;28;20052;-55
2022/01/16 09:37:44;;;;;;;168.43;133.98;;;333.20;1536.00;;;;;;5052919;28;20017;-55
2022/01/16 09:40:12;;;;;;;189.00;160.85;;;332.90;1561.60;;;;;;5053335;28;20021;-70
2022/01/16 09:42:38;;;;;;;199.48;166.88;;;333.10;1561.60;;;;;;5048495;28;20032;-62
2022/01/16 09:45:07;;;;;;;158.98;134.52;;;333.30;1536.00;;;;;;5048701;28;20458;-62
2022/01/16 09:47:33;;;;;;;153.80;131.18;;;333.50;1536.00;;;;;;5048720;28;20035;-61
2022/01/16 09:49:59;;;;;;;150.32;132.63;;;333.40;1536.00;;;;;;5047885;28;20103;-62
2022/01/16 09:52:25;;;;;;;171.65;142.10;;;333.10;1561.60;;;;;;5037604;28;20025;-64
2022/01/16 09:54:51;;;;;;;132.82;114.53;;;333.00;1587.20;;;;;;5037912;28;20024;-65
2022/01/16 09:57:17;;;;;;;163.27;120.60;;;333.40;1536.00;;;;;;5038210;28;20425;-62
2022/01/16 09:59:46;;;;;;;162.30;126.95;;;307.90;1561.60;;;;;;5048527;28;20497;-61
2022/01/16 10:02:12;;;;;;;146.65;112.00;;;307.50;1612.80;;;;;;5048188;28;20515;-62
2022/01/16 10:04:43;;;;;;;193.02;131.27;;;256.90;1664.00;;;;;;5048337;28;20029;-61
2022/01/16 10:07:12;;;;;;;166.07;119.00;;;231.20;1740.80;;;;;;5039053;28;20032;-62
2022/01/16 10:09:40;;;;;;;189.57;136.40;;;230.90;1792.00;;;;;;5036005;28;20467;-61
2022/01/16 10:12:19;;;;;;;134.23;94.22;;;205.60;1894.40;;;;;;5037227;28;20546;-62
2022/01/16 10:14:50;;;;;;;155.25;108.97;;;205.10;1945.60;;;;;;5036984;28;20029;-61
2022/01/16 10:17:21;;;;;;;137.20;96.35;;;204.80;1996.80;;;;;;5035920;28;20545;-63
2022/01/16 10:20:04;;;;;;;121.60;89.30;;;179.90;2048.00;;;;;;5037188;28;20013;-61
2022/01/16 10:22:57;;;;;;;114.82;81.68;;;179.20;2227.20;;;;;;5036167;28;20021;-68
2022/01/16 10:25:45;;;;;;;120.47;83.22;;;154.40;2252.80;;;;;;5037786;28;20038;-68
2022/01/16 10:28:22;;;;;;;93.88;64.47;;;154.40;2252.80;;;;;;5039924;28;20029;-62
2022/01/16 10:30:56;;;;;;;128.40;84.90;;;154.00;2252.80;;;;;;5048223;28;20059;-63
2022/01/16 10:33:24;;;;;;;149.75;104.28;;;154.10;2252.80;;;;;;5047971;28;20116;-62
2022/01/16 10:35:53;;;;;;;103.32;72.72;;;154.20;2252.80;;;;;;5048119;28;20116;-66
2022/01/16 10:38:30;;;;;;;104.72;65.53;;;154.30;2252.80;;;;;;5048012;28;20103;-65
2022/01/16 10:40:58;;;;;;;97.10;58.67;;;154.40;2252.80;;;;;;5048334;28;20418;-78
2022/01/16 10:43:44;;;;;;;89.22;58.67;;;154.20;2252.80;;;;;;5048441;28;20502;-77
2022/01/16 10:46:12;;;;;;;127.63;78.80;;;154.40;2252.80;;;;;;5048796;28;20049;-77
2022/01/16 10:48:39;;;;;;;104.00;60.72;;;179.20;2252.80;;;;;;5048990;28;20048;-76
2022/01/16 10:51:17;;;;;;;110.78;67.38;;;154.50;2252.80;;;;;;5051927;28;20028;-76
2022/01/16 10:53:43;;;;;;;98.53;58.78;;;154.40;2252.80;;;;;;5053965;28;20430;-78
2022/01/16 10:56:08;;;;;;;83.75;56.33;;;154.50;2252.80;;;;;;5053821;28;20040;-78
2022/01/16 10:58:41;;;;;;;95.75;61.83;;;154.40;2252.80;;;;;;5054817;28;20074;-80
2022/01/16 11:01:15;;;;;;;76.25;51.05;;;154.20;2252.80;;;;;;5051856;28;20394;-68
2022/01/16 11:03:46;;;;;;;91.15;62.17;;;154.20;2252.80;;;;;;5052174;28;20047;-77
2022/01/16 11:06:18;;;;;;;87.13;60.95;;;154.50;2252.80;;;;;;5054662;28;20017;-74
2022/01/16 11:08:58;;;;;;;85.38;55.00;;;154.20;2252.80;;;;;;5053976;28;20538;-78
2022/01/16 11:11:27;;;;;;;83.25;55.50;;;154.10;2252.80;;;;;;5052756;28;20021;-76
2022/01/16 11:14:00;;;;;;;84.70;56.60;;;154.10;2252.80;;;;;;5054544;28;20047;-80
2022/01/16 11:16:27;;;;;;;109.75;71.00;;;154.20;2252.80;;;;;;5055385;28;20036;-76
2022/01/16 11:18:53;;;;;;;87.00;53.95;;;154.20;2252.80;;;;;;5054150;28;20147;-76
2022/01/16 11:21:31;;;;;;;75.60;47.25;;;154.10;2252.80;;;;;;5052655;28;20040;-77
2022/01/16 11:24:22;;;;;;;72.97;47.90;;;154.40;2252.80;;;;;;5053550;28;20040;-77
2022/01/16 11:26:47;;;;;;;70.10;47.13;;;154.40;2252.80;;;;;;5053087;28;20490;-76
2022/01/16 11:29:13;;;;;;;75.13;50.85;;;154.40;2252.80;;;;;;5053793;28;20053;-77
2022/01/16 11:31:47;;;;;;;75.18;53.92;;;179.20;2252.80;;;;;;5053345;28;20025;-76
2022/01/16 11:34:13;;;;;;;75.88;49.50;;;154.40;2252.80;;;;;;5053140;28;20584;-76
2022/01/16 11:36:40;;;;;;;81.20;54.20;;;154.50;2252.80;;;;;;5053030;28;20071;-77
2022/01/16 11:39:09;;;;;;;92.22;57.85;;;179.20;2252.80;;;;;;5053077;28;20095;-77
2022/01/16 11:41:49;;;;;;;88.95;57.83;;;154.50;2252.80;;;;;;5052767;28;20029;-76
2022/01/16 11:44:29;;;;;;;87.03;59.63;;;154.50;2252.80;;;;;;5052750;28;20041;-77
2022/01/16 11:47:06;;;;;;;89.03;59.17;;;179.20;2252.80;;;;;;5052718;28;20546;-76
2022/01/16 11:49:43;;;;;;;89.03;60.70;;;179.40;2252.80;;;;;;5052689;28;20118;-77
2022/01/16 11:52:15;;;;;;;73.93;49.58;;;179.20;2252.80;;;;;;5052675;28;20025;-77
2022/01/16 11:54:45;;;;;;;71.88;45.92;;;179.40;2252.80;;;;;;5051155;28;20029;-76
2022/01/16 11:57:31;;;;;;;78.88;49.55;;;179.30;2252.80;;;;;;5051252;28;20017;-76
2022/01/16 12:00:16;;;;;;;94.68;62.63;;;179.40;2252.80;;;;;;5050247;28;20037;-76
2022/01/16 12:02:44;;;;;;;113.07;77.90;;;179.30;2252.80;;;;;;5052391;28;20045;-76
2022/01/16 12:05:10;;;;;;;74.55;50.10;;;179.20;2252.80;;;;;;5050955;28;20105;-76
2022/01/16 12:07:36;;;;;;;81.28;49.05;;;179.30;2252.80;;;;;;5050508;28;20069;-75
2022/01/16 12:10:04;;;;;;;108.93;71.28;;;179.40;2252.80;;;;;;5052236;28;20025;-76
2022/01/16 12:12:31;;;;;;;68.60;43.22;;;179.40;2252.80;;;;;;5052076;28;20033;-75
2022/01/16 12:15:03;;;;;;;85.65;57.50;;;179.50;2252.80;;;;;;5052005;28;20020;-76
2022/01/16 12:17:41;;;;;;;93.72;60.00;;;179.50;2252.80;;;;;;5051963;28;20032;-76
2022/01/16 12:20:13;;;;;;;70.53;43.95;;;179.80;2252.80;;;;;;5051953;28;20028;-77
2022/01/16 12:22:55;;;;;;;50.45;34.65;;;179.70;2252.80;;;;;;5051849;28;20040;-76
2022/01/16 12:25:30;;;;;;;82.55;54.42;;;179.80;2252.80;;;;;;5052103;28;20017;-76
2022/01/16 12:28:01;;;;;;;113.28;70.57;;;179.80;2252.80;;;;;;5052230;28;20051;-77
2022/01/16 12:30:39;;;;;;;92.47;59.55;;;179.90;2252.80;;;;;;5051821;28;20032;-77
2022/01/16 12:33:09;;;;;;;85.43;54.05;;;179.80;2252.80;;;;;;5052011;28;20033;-77
2022/01/16 12:35:41;;;;;;;86.80;56.08;;;180.00;2252.80;;;;;;5046614;28;20491;-77
2022/01/16 12:38:30;;;;;;;114.53;72.63;;;180.00;2252.80;;;;;;5051803;28;20490;-76
2022/01/16 12:41:10;;;;;;;103.22;66.40;;;179.90;2252.80;;;;;;5051853;28;20059;-76
2022/01/16 12:43:46;;;;;;;96.07;59.88;;;179.70;2252.80;;;;;;5052021;28;20102;-77
2022/01/16 12:46:14;;;;;;;58.78;36.95;;;179.70;2252.80;;;;;;5052463;28;20025;-77
2022/01/16 12:48:42;;;;;;;84.68;51.22;;;180.00;2252.80;;;;;;5053107;28;20035;-77
2022/01/16 12:51:08;;;;;;;84.38;51.80;;;179.80;2252.80;;;;;;5051643;28;20025;-76
2022/01/16 12:53:42;;;;;;;51.80;34.45;;;180.10;2252.80;;;;;;5051787;28;20048;-76